Terminal Aerodrome Forecast
Issued by NWS

Home | Current Version | Previous Version | Text Only | Print | Product List | Glossary On
Versions: 1 2 3 4 5 6 7 8 9 10 11 12 13 14 15 16
000
FTUS46 KLOX 012300 RRA
TAFSBA
TAF
KSBA 012342Z 0200/0224 22008KT P6SM VCSH BKN025 OVC040
     FM020200 VRB03KT P6SM VCSH SCT025 BKN050
     FM020700 VRB03KT P6SM SCT050 BKN100
     FM021500 16005KT P6SM -SHRA BKN050 BKN100
     FM022100 23009KT P6SM VCSH BKN050 BKN080=

USA.gov is the U.S. government's official web portal to all federal, state and local government web resources and services.